Time;durP1;ratioP1;P1;durP2;ratioP2;P2;SDS_P1;SDS_P2;PMS_P1;PMS_P2;Temp;Humidity;BMP_temperature;BMP_pressure;BME280_temperature;BME280_humidity;BME280_pressure;Samples;Min_cycle;Max_cycle;Signal;HPM_P1;HPM_P2
2021/08/04 00:01:25;;;;;;;7.10;5.00;;;15.60;99.90;;;;;;5031900;28;20495;-67
2021/08/04 00:03:52;;;;;;;7.40;5.40;;;15.60;99.90;;;;;;5031975;28;20463;-69
2021/08/04 00:06:19;;;;;;;6.10;4.60;;;15.60;99.90;;;;;;5032178;28;20456;-68
2021/08/04 00:08:46;;;;;;;5.10;3.60;;;15.60;99.90;;;;;;5031887;28;20551;-69
2021/08/04 00:11:13;;;;;;;6.60;3.90;;;15.60;99.90;;;;;;5031553;28;20974;-69
2021/08/04 00:13:40;;;;;;;8.23;3.90;;;15.50;99.90;;;;;;5032130;28;20563;-70
2021/08/04 00:16:09;;;;;;;6.30;3.70;;;15.50;99.90;;;;;;5032061;28;20564;-69
2021/08/04 00:18:36;;;;;;;4.20;2.90;;;15.50;99.90;;;;;;5031954;28;20472;-68
2021/08/04 00:21:03;;;;;;;4.87;3.47;;;15.50;99.90;;;;;;5031755;28;20533;-68
2021/08/04 00:23:30;;;;;;;5.20;3.67;;;15.40;99.90;;;;;;5031736;28;20487;-68
2021/08/04 00:25:57;;;;;;;5.60;3.67;;;15.50;99.90;;;;;;5032016;28;20522;-68
2021/08/04 00:28:25;;;;;;;4.40;3.30;;;15.50;99.90;;;;;;5031644;28;20448;-67
2021/08/04 00:30:52;;;;;;;5.60;3.50;;;15.50;99.90;;;;;;5031394;28;21091;-68
2021/08/04 00:33:20;;;;;;;4.60;3.37;;;15.40;99.90;;;;;;5031517;28;20525;-68
2021/08/04 00:35:47;;;;;;;5.70;3.63;;;15.40;99.90;;;;;;5031634;28;21108;-68
2021/08/04 00:38:15;;;;;;;4.23;3.23;;;15.40;99.90;;;;;;5031440;28;20524;-69
2021/08/04 00:40:43;;;;;;;4.37;3.00;;;15.40;99.90;;;;;;5030675;28;20448;-68
2021/08/04 00:43:11;;;;;;;6.80;3.40;;;15.40;99.90;;;;;;5031320;28;20497;-69
2021/08/04 00:45:38;;;;;;;4.63;3.50;;;15.50;99.90;;;;;;5031385;28;20471;-70
2021/08/04 00:48:07;;;;;;;6.30;3.97;;;15.40;99.90;;;;;;5031066;28;20489;-67
2021/08/04 00:50:37;;;;;;;5.07;3.60;;;15.50;99.90;;;;;;5030095;28;20532;-69
2021/08/04 00:53:18;;;;;;;5.43;4.30;;;15.50;99.90;;;;;;5031298;28;20970;-69
2021/08/04 00:55:45;;;;;;;6.00;3.90;;;15.50;99.90;;;;;;5031245;28;20532;-67
2021/08/04 00:58:12;;;;;;;4.80;3.83;;;15.50;99.90;;;;;;5031012;28;20449;-69
2021/08/04 01:00:42;;;;;;;4.97;3.47;;;15.50;99.90;;;;;;5030510;28;20892;-68
2021/08/04 01:03:10;;;;;;;4.80;3.37;;;15.40;99.90;;;;;;5030932;28;20491;-69
2021/08/04 01:05:44;;;;;;;5.20;4.23;;;15.30;99.90;;;;;;5030779;28;20975;-68
2021/08/04 01:08:17;;;;;;;5.33;3.60;;;15.30;99.90;;;;;;5030814;28;20449;-68
2021/08/04 01:10:49;;;;;;;5.23;3.67;;;15.30;99.90;;;;;;5030556;28;20437;-68
2021/08/04 01:13:21;;;;;;;3.67;2.80;;;15.20;99.90;;;;;;5030734;28;20818;-70
2021/08/04 01:15:52;;;;;;;5.93;3.70;;;15.20;99.90;;;;;;5030779;28;20452;-68
2021/08/04 01:18:24;;;;;;;4.87;3.40;;;15.20;99.90;;;;;;5030773;28;20451;-68
2021/08/04 01:20:53;;;;;;;4.40;3.17;;;15.20;99.90;;;;;;5030369;28;20449;-69
2021/08/04 01:23:31;;;;;;;6.30;4.10;;;15.10;99.90;;;;;;5030286;28;20484;-70
2021/08/04 01:26:01;;;;;;;5.73;3.60;;;15.10;99.90;;;;;;5030415;28;20555;-69
2021/08/04 01:28:33;;;;;;;6.27;3.67;;;15.10;99.90;;;;;;5030205;28;20979;-69
2021/08/04 01:31:04;;;;;;;4.83;3.57;;;15.10;99.90;;;;;;5030233;28;20552;-68
2021/08/04 01:33:32;;;;;;;5.17;3.50;;;15.10;99.90;;;;;;5030415;28;20527;-68
2021/08/04 01:36:01;;;;;;;7.00;4.37;;;15.10;99.90;;;;;;5030205;28;20479;-70
2021/08/04 01:38:30;;;;;;;4.83;3.53;;;15.10;99.90;;;;;;5030333;28;20461;-68
2021/08/04 01:40:58;;;;;;;4.40;3.30;;;15.10;99.90;;;;;;5030222;28;20457;-69
2021/08/04 01:43:26;;;;;;;5.70;3.00;;;15.10;99.90;;;;;;5030471;28;20595;-69
2021/08/04 01:45:56;;;;;;;4.63;3.53;;;15.00;99.90;;;;;;5030185;28;20453;-70
2021/08/04 01:48:25;;;;;;;4.40;3.40;;;15.10;99.90;;;;;;5029991;28;20448;-68
2021/08/04 01:50:55;;;;;;;3.70;3.00;;;15.20;99.90;;;;;;5029828;28;20803;-68
2021/08/04 01:53:24;;;;;;;4.43;3.23;;;15.20;99.90;;;;;;5030128;28;20535;-69
2021/08/04 01:55:51;;;;;;;3.90;3.10;;;15.20;99.90;;;;;;5029900;28;20540;-69
2021/08/04 01:58:18;;;;;;;4.83;3.70;;;15.20;99.90;;;;;;5029958;28;20451;-68
2021/08/04 02:00:45;;;;;;;5.53;3.97;;;15.30;99.90;;;;;;5029838;28;21059;-69
2021/08/04 02:03:13;;;;;;;3.97;3.20;;;15.30;99.90;;;;;;5029472;28;20515;-69
2021/08/04 02:05:41;;;;;;;5.10;3.43;;;15.30;99.90;;;;;;5030086;28;20451;-68
2021/08/04 02:08:16;;;;;;;5.00;3.47;;;15.30;99.90;;;;;;5030060;28;20559;-69
2021/08/04 02:10:51;;;;;;;6.53;3.83;;;15.30;99.90;;;;;;5029479;28;20955;-68
2021/08/04 02:13:26;;;;;;;5.23;3.40;;;15.30;99.90;;;;;;5029870;28;20449;-70
2021/08/04 02:16:00;;;;;;;4.70;3.57;;;15.30;99.90;;;;;;5030213;28;20449;-69
2021/08/04 02:18:31;;;;;;;4.83;3.53;;;15.30;99.90;;;;;;5030176;28;20523;-69
2021/08/04 02:21:01;;;;;;;9.20;4.03;;;15.30;99.90;;;;;;5029487;28;20453;-70
2021/08/04 02:23:34;;;;;;;4.00;3.20;;;15.30;99.90;;;;;;5029663;28;21116;-69
2021/08/04 02:26:06;;;;;;;4.50;3.23;;;15.30;99.90;;;;;;5029606;28;21043;-69
2021/08/04 02:28:36;;;;;;;5.90;3.50;;;15.30;99.90;;;;;;5029961;28;21000;-69
2021/08/04 02:31:06;;;;;;;4.63;3.40;;;15.30;99.90;;;;;;5029575;28;20491;-69
2021/08/04 02:33:35;;;;;;;4.67;3.50;;;15.40;99.90;;;;;;5029883;28;20883;-69
2021/08/04 02:36:02;;;;;;;4.60;3.70;;;15.30;99.90;;;;;;5029696;28;20528;-68
2021/08/04 02:38:30;;;;;;;5.90;4.03;;;15.40;99.90;;;;;;5029243;28;20555;-69
2021/08/04 02:40:57;;;;;;;4.63;3.10;;;15.30;99.90;;;;;;5029071;28;20444;-69
2021/08/04 02:43:25;;;;;;;5.37;3.43;;;15.30;99.90;;;;;;5029393;28;20495;-69
2021/08/04 02:45:53;;;;;;;4.20;2.70;;;15.20;99.90;;;;;;5029621;28;20480;-69
2021/08/04 02:48:20;;;;;;;5.40;3.20;;;15.20;99.90;;;;;;5029274;28;20532;-69
2021/08/04 02:50:52;;;;;;;7.37;4.23;;;15.10;99.90;;;;;;5029011;28;20448;-70
2021/08/04 02:53:20;;;;;;;5.10;3.77;;;15.10;99.90;;;;;;5029460;28;20506;-69
2021/08/04 02:55:50;;;;;;;4.80;3.20;;;15.00;99.90;;;;;;5029495;28;20451;-69
2021/08/04 02:58:17;;;;;;;4.37;3.07;;;15.00;99.90;;;;;;5029389;28;20453;-69
2021/08/04 03:00:45;;;;;;;4.60;3.07;;;15.00;99.90;;;;;;5029282;28;20528;-69
2021/08/04 03:03:12;;;;;;;4.43;2.93;;;14.90;99.90;;;;;;5029427;28;20495;-70
2021/08/04 03:05:39;;;;;;;4.97;2.90;;;15.00;99.90;;;;;;5029172;28;20536;-69
2021/08/04 03:08:07;;;;;;;4.63;3.57;;;15.00;99.90;;;;;;5029366;28;20849;-68
2021/08/04 03:10:34;;;;;;;4.97;3.10;;;15.00;99.90;;;;;;5029010;28;20449;-70
2021/08/04 03:13:00;;;;;;;3.53;2.70;;;14.90;99.90;;;;;;5029449;28;20437;-69
2021/08/04 03:15:27;;;;;;;4.07;2.90;;;15.00;99.90;;;;;;5032483;28;20475;-69
2021/08/04 03:17:54;;;;;;;5.87;2.97;;;14.90;99.90;;;;;;5032715;28;21142;-69
2021/08/04 03:20:21;;;;;;;4.03;3.00;;;14.90;99.90;;;;;;5032297;28;20845;-68
2021/08/04 03:22:50;;;;;;;4.50;3.20;;;15.00;99.90;;;;;;5032737;28;20567;-69
2021/08/04 03:25:19;;;;;;;7.10;2.97;;;15.00;99.90;;;;;;5032603;28;20547;-69
2021/08/04 03:27:46;;;;;;;4.70;2.90;;;14.90;99.90;;;;;;5032643;28;20540;-68
2021/08/04 03:30:14;;;;;;;4.37;3.03;;;14.90;99.90;;;;;;5032254;28;20483;-70
2021/08/04 03:32:41;;;;;;;4.27;2.90;;;14.90;99.90;;;;;;5032387;28;20445;-68
2021/08/04 03:35:10;;;;;;;4.00;2.80;;;14.90;99.90;;;;;;5032837;28;20535;-69
2021/08/04 03:37:37;;;;;;;6.10;3.53;;;15.00;99.90;;;;;;5032602;28;20451;-69
2021/08/04 03:40:04;;;;;;;4.60;3.60;;;14.90;99.90;;;;;;5032404;28;20471;-70
2021/08/04 03:42:32;;;;;;;5.60;3.50;;;14.90;99.90;;;;;;5032400;28;20455;-69
2021/08/04 03:44:59;;;;;;;4.77;3.00;;;15.00;99.90;;;;;;5032389;28;20961;-69
2021/08/04 03:47:26;;;;;;;6.13;3.40;;;14.90;99.90;;;;;;5032638;28;20448;-68
2021/08/04 03:49:53;;;;;;;4.40;3.17;;;14.90;99.90;;;;;;5031870;28;20516;-69
2021/08/04 03:52:20;;;;;;;5.10;3.43;;;14.90;99.90;;;;;;5032292;28;20463;-68
2021/08/04 03:54:48;;;;;;;3.90;2.60;;;14.90;99.90;;;;;;5032415;28;20911;-68
2021/08/04 03:57:15;;;;;;;3.83;2.77;;;14.90;99.90;;;;;;5032217;28;20463;-69
2021/08/04 03:59:43;;;;;;;6.40;3.10;;;14.90;99.90;;;;;;5031608;28;20991;-68
2021/08/04 04:02:10;;;;;;;3.70;2.60;;;14.80;99.90;;;;;;5032275;28;20822;-68
2021/08/04 04:04:37;;;;;;;4.57;2.93;;;14.70;99.90;;;;;;5031897;28;20572;-68
2021/08/04 04:07:05;;;;;;;4.33;3.27;;;14.70;99.90;;;;;;5032005;28;20456;-68
2021/08/04 04:09:32;;;;;;;3.30;2.70;;;14.70;99.90;;;;;;5031680;28;20555;-68
2021/08/04 04:11:59;;;;;;;4.77;2.73;;;14.60;99.90;;;;;;5031766;28;20457;-68
2021/08/04 04:14:26;;;;;;;5.00;2.97;;;14.60;99.90;;;;;;5031665;28;20528;-68
2021/08/04 04:16:55;;;;;;;4.50;2.93;;;14.60;99.90;;;;;;5032004;28;20539;-69
2021/08/04 04:19:21;;;;;;;4.63;3.07;;;14.60;99.90;;;;;;5031609;28;20869;-70
2021/08/04 04:21:48;;;;;;;5.67;3.07;;;14.50;99.90;;;;;;5032844;28;20536;-68
2021/08/04 04:24:15;;;;;;;6.17;2.80;;;14.60;99.90;;;;;;5032262;28;20575;-68
2021/08/04 04:26:42;;;;;;;4.20;3.07;;;14.60;99.90;;;;;;5031113;28;20465;-68
2021/08/04 04:29:09;;;;;;;4.60;3.00;;;14.60;99.90;;;;;;5031840;28;20917;-68
2021/08/04 04:31:36;;;;;;;8.20;3.20;;;14.50;99.90;;;;;;5032477;28;20532;-70
2021/08/04 04:34:05;;;;;;;3.70;3.23;;;14.50;99.90;;;;;;5031904;28;20448;-68
2021/08/04 04:36:32;;;;;;;6.10;3.83;;;14.50;99.90;;;;;;5031611;28;20536;-68
2021/08/04 04:38:58;;;;;;;5.50;2.70;;;14.60;99.90;;;;;;5031306;28;20499;-69
2021/08/04 04:41:25;;;;;;;3.70;2.40;;;14.70;99.90;;;;;;5031367;28;20453;-68
2021/08/04 04:43:52;;;;;;;4.07;3.17;;;14.70;99.90;;;;;;5031656;28;20905;-68
2021/08/04 04:46:19;;;;;;;5.90;3.23;;;14.80;99.90;;;;;;5031576;28;20518;-69
2021/08/04 04:48:46;;;;;;;5.47;3.40;;;14.70;99.90;;;;;;5031294;28;20908;-68
2021/08/04 04:51:14;;;;;;;4.70;3.40;;;14.80;99.90;;;;;;5031098;28;20495;-69
2021/08/04 04:53:41;;;;;;;4.10;2.70;;;14.90;99.90;;;;;;5030995;28;20878;-69
2021/08/04 04:56:08;;;;;;;3.70;2.70;;;14.90;99.90;;;;;;5031052;28;20503;-68
2021/08/04 04:58:34;;;;;;;3.77;2.77;;;14.90;99.90;;;;;;5030698;28;21034;-68
2021/08/04 05:01:01;;;;;;;4.20;2.90;;;15.00;99.90;;;;;;5030709;28;20476;-69
2021/08/04 05:03:28;;;;;;;5.30;3.33;;;15.10;99.90;;;;;;5030736;28;20487;-68
2021/08/04 05:05:55;;;;;;;4.47;2.90;;;15.20;99.90;;;;;;5030994;28;20448;-69
2021/08/04 05:08:23;;;;;;;5.00;3.23;;;15.30;99.90;;;;;;5030458;28;20815;-68
2021/08/04 05:10:50;;;;;;;4.80;2.83;;;15.30;99.90;;;;;;5030270;28;21044;-68
2021/08/04 05:13:17;;;;;;;5.50;3.50;;;15.40;99.90;;;;;;5030694;28;21017;-68
2021/08/04 05:15:44;;;;;;;5.27;2.80;;;15.50;99.90;;;;;;5030857;28;20528;-69
2021/08/04 05:18:11;;;;;;;4.53;3.00;;;15.50;99.90;;;;;;5030370;28;20445;-68
2021/08/04 05:20:37;;;;;;;4.63;3.03;;;15.50;99.90;;;;;;5030195;28;20536;-69
2021/08/04 05:23:04;;;;;;;4.67;3.47;;;15.40;99.90;;;;;;5030196;28;20527;-69
2021/08/04 05:25:33;;;;;;;4.90;3.50;;;15.50;99.90;;;;;;5030430;28;20457;-68
2021/08/04 05:28:00;;;;;;;4.70;3.30;;;15.50;99.90;;;;;;5030627;28;20543;-69
2021/08/04 05:30:27;;;;;;;5.57;3.60;;;15.50;99.90;;;;;;5030053;28;20500;-69
2021/08/04 05:32:53;;;;;;;4.57;2.90;;;15.60;99.90;;;;;;5030329;28;20440;-68
2021/08/04 05:35:20;;;;;;;4.70;3.00;;;15.70;99.90;;;;;;5030207;28;20528;-69
2021/08/04 05:37:47;;;;;;;4.50;3.20;;;15.80;99.90;;;;;;5029666;28;21038;-68
2021/08/04 05:40:15;;;;;;;5.77;4.00;;;15.80;99.90;;;;;;5029931;28;20472;-68
2021/08/04 05:42:43;;;;;;;4.70;3.60;;;15.90;99.90;;;;;;5030031;28;20524;-69
2021/08/04 05:45:10;;;;;;;7.83;3.43;;;16.00;99.90;;;;;;5030068;28;20575;-69
2021/08/04 05:47:37;;;;;;;7.20;3.87;;;16.10;99.90;;;;;;5030136;28;20463;-68
2021/08/04 05:50:05;;;;;;;5.37;3.77;;;16.20;99.90;;;;;;5029662;28;20838;-69
2021/08/04 05:52:32;;;;;;;4.57;3.30;;;16.40;99.90;;;;;;5030259;28;20441;-70
2021/08/04 05:54:59;;;;;;;4.40;3.03;;;16.50;99.90;;;;;;5030238;28;20445;-70
2021/08/04 05:57:26;;;;;;;5.70;3.40;;;16.80;99.90;;;;;;5030712;28;20473;-68
2021/08/04 05:59:54;;;;;;;6.43;3.10;;;17.00;99.90;;;;;;5029718;28;20497;-69
2021/08/04 06:02:21;;;;;;;5.00;3.43;;;17.30;99.90;;;;;;5029856;28;20475;-70
2021/08/04 06:04:49;;;;;;;5.57;3.30;;;17.60;99.90;;;;;;5029514;28;20576;-69
2021/08/04 06:07:15;;;;;;;6.27;2.90;;;17.60;99.90;;;;;;5029880;28;20827;-69
2021/08/04 06:09:43;;;;;;;4.33;2.80;;;17.70;99.90;;;;;;5029516;28;20475;-68
2021/08/04 06:12:10;;;;;;;6.93;2.80;;;17.80;99.90;;;;;;5030184;28;20862;-67
2021/08/04 06:14:37;;;;;;;8.97;3.30;;;17.70;99.90;;;;;;5029837;28;20440;-68
2021/08/04 06:17:05;;;;;;;4.63;2.70;;;17.70;99.90;;;;;;5029658;28;20444;-68
2021/08/04 06:19:32;;;;;;;4.83;3.10;;;17.70;99.90;;;;;;5029232;28;20468;-67
2021/08/04 06:21:59;;;;;;;3.47;2.10;;;17.70;99.90;;;;;;5029721;28;20536;-68
2021/08/04 06:24:26;;;;;;;7.03;2.63;;;17.90;99.90;;;;;;5029546;28;20487;-69
2021/08/04 06:26:54;;;;;;;5.27;2.30;;;18.10;99.90;;;;;;5029678;28;20459;-68
2021/08/04 06:29:21;;;;;;;6.40;2.93;;;18.30;99.90;;;;;;5029247;28;20476;-68
2021/08/04 06:31:48;;;;;;;6.60;3.40;;;18.70;99.90;;;;;;5029594;28;20453;-69
2021/08/04 06:34:16;;;;;;;6.37;3.90;;;18.90;99.90;;;;;;5029606;28;20484;-69
2021/08/04 06:36:43;;;;;;;7.60;3.37;;;19.10;99.90;;;;;;5029814;28;20459;-69
2021/08/04 06:39:10;;;;;;;4.10;2.80;;;19.10;99.90;;;;;;5029430;28;20503;-70
2021/08/04 06:41:36;;;;;;;4.80;3.87;;;19.00;99.90;;;;;;5029366;28;20839;-69
2021/08/04 06:44:04;;;;;;;7.30;3.57;;;19.10;99.90;;;;;;5029776;28;20484;-69
2021/08/04 06:46:33;;;;;;;7.53;3.23;;;19.20;99.90;;;;;;5029759;28;20445;-69
2021/08/04 06:49:00;;;;;;;7.40;3.80;;;19.20;99.90;;;;;;5030331;28;20504;-70
2021/08/04 06:51:29;;;;;;;4.90;3.40;;;19.10;99.90;;;;;;5033316;28;20451;-69
2021/08/04 06:53:55;;;;;;;4.43;2.60;;;19.00;99.90;;;;;;5033402;28;20961;-69
2021/08/04 06:56:22;;;;;;;8.80;3.23;;;19.00;99.90;;;;;;5033274;28;20440;-69
2021/08/04 06:58:50;;;;;;;5.43;3.00;;;19.10;99.90;;;;;;5033302;28;20475;-69
2021/08/04 07:01:17;;;;;;;4.30;3.03;;;19.10;99.90;;;;;;5032982;28;20539;-69
2021/08/04 07:03:44;;;;;;;5.03;3.07;;;19.20;99.90;;;;;;5033186;28;20826;-69
2021/08/04 07:06:11;;;;;;;5.33;3.67;;;19.30;99.90;;;;;;5033312;28;20444;-69
2021/08/04 07:08:40;;;;;;;7.13;3.10;;;19.40;99.90;;;;;;5033124;28;20559;-69
2021/08/04 07:11:08;;;;;;;5.20;2.70;;;19.50;99.90;;;;;;5032691;28;20977;-69
2021/08/04 07:13:35;;;;;;;3.90;2.87;;;19.50;99.90;;;;;;5032860;28;20447;-68
2021/08/04 07:16:02;;;;;;;4.97;3.13;;;19.50;99.90;;;;;;5032746;28;20449;-69
2021/08/04 07:18:29;;;;;;;4.47;3.00;;;19.50;99.90;;;;;;5032624;28;20536;-69
2021/08/04 07:20:55;;;;;;;6.30;2.80;;;19.30;99.90;;;;;;5032491;28;20449;-69
2021/08/04 07:23:22;;;;;;;4.00;2.37;;;19.10;99.90;;;;;;5032966;28;20453;-69
2021/08/04 07:25:51;;;;;;;5.47;2.40;;;19.00;99.90;;;;;;5032474;28;20480;-71
2021/08/04 07:28:18;;;;;;;3.20;2.10;;;18.90;99.90;;;;;;5032536;28;20453;-70
2021/08/04 07:30:45;;;;;;;4.83;2.30;;;18.90;99.90;;;;;;5032146;28;20457;-69
2021/08/04 07:33:12;;;;;;;4.53;2.60;;;19.00;99.90;;;;;;5032822;28;20637;-69
2021/08/04 07:35:40;;;;;;;5.97;3.03;;;19.00;99.90;;;;;;5032859;28;20950;-68
2021/08/04 07:38:08;;;;;;;3.37;2.50;;;19.00;99.90;;;;;;5032726;28;20495;-69
2021/08/04 07:40:35;;;;;;;4.33;2.33;;;19.20;99.90;;;;;;5032239;28;20457;-69
2021/08/04 07:43:04;;;;;;;4.70;2.63;;;19.40;99.90;;;;;;5032562;28;20506;-69
2021/08/04 07:45:31;;;;;;;4.03;2.33;;;19.40;99.90;;;;;;5032504;28;20476;-68
2021/08/04 07:47:57;;;;;;;7.13;2.50;;;19.40;99.90;;;;;;5032338;28;20451;-69
2021/08/04 07:50:24;;;;;;;4.77;2.70;;;19.40;99.90;;;;;;5031953;28;20925;-68
2021/08/04 07:52:51;;;;;;;6.43;2.40;;;19.30;99.90;;;;;;5032194;28;20532;-70
2021/08/04 07:55:20;;;;;;;3.77;2.40;;;19.60;99.90;;;;;;5032291;28;20453;-69
2021/08/04 07:57:47;;;;;;;4.13;2.87;;;19.90;99.90;;;;;;5032119;28;20452;-68
2021/08/04 08:00:16;;;;;;;4.83;2.80;;;20.00;99.90;;;;;;5031616;28;20559;-69
2021/08/04 08:02:43;;;;;;;4.20;2.53;;;20.30;99.90;;;;;;5031397;28;21001;-70
2021/08/04 08:05:11;;;;;;;3.20;2.33;;;20.30;99.90;;;;;;5032016;28;20584;-69
2021/08/04 08:07:45;;;;;;;7.90;2.70;;;20.20;99.90;;;;;;5032508;28;20445;-69
2021/08/04 08:10:12;;;;;;;3.10;2.30;;;20.20;99.90;;;;;;5031666;28;20495;-69
2021/08/04 08:12:39;;;;;;;3.33;2.23;;;20.10;99.90;;;;;;5031742;28;20444;-69
2021/08/04 08:15:07;;;;;;;3.53;2.00;;;20.00;99.90;;;;;;5032109;28;20451;-69
2021/08/04 08:17:35;;;;;;;3.43;2.37;;;19.60;99.90;;;;;;5032332;28;20445;-69
2021/08/04 08:20:05;;;;;;;3.83;2.37;;;19.40;99.90;;;;;;5031537;28;20472;-69
2021/08/04 08:22:32;;;;;;;2.90;1.87;;;19.20;99.90;;;;;;5032008;28;20449;-69
2021/08/04 08:25:00;;;;;;;3.20;2.10;;;19.00;99.90;;;;;;5031396;28;20491;-69
2021/08/04 08:27:27;;;;;;;3.33;2.40;;;18.90;99.90;;;;;;5031921;28;20514;-69
2021/08/04 08:29:54;;;;;;;3.80;2.37;;;19.00;99.90;;;;;;5031438;28;20547;-69
2021/08/04 08:32:25;;;;;;;5.00;2.60;;;19.10;99.90;;;;;;5031539;28;20451;-68
2021/08/04 08:34:55;;;;;;;4.13;2.53;;;19.20;99.90;;;;;;5031535;28;20459;-69
2021/08/04 08:37:22;;;;;;;3.43;2.13;;;19.30;99.90;;;;;;5031306;28;20449;-68
2021/08/04 08:39:49;;;;;;;4.07;2.53;;;19.40;99.90;;;;;;5031161;28;20471;-69
2021/08/04 08:42:20;;;;;;;6.80;1.97;;;19.60;99.90;;;;;;5031542;28;20535;-69
2021/08/04 08:44:49;;;;;;;3.60;2.10;;;20.00;99.90;;;;;;5031466;28;20472;-69
2021/08/04 08:47:16;;;;;;;7.97;2.87;;;20.60;99.90;;;;;;5031338;28;20871;-69
2021/08/04 08:49:45;;;;;;;3.50;2.27;;;21.10;99.90;;;;;;5030922;28;20856;-68
2021/08/04 08:52:15;;;;;;;3.37;2.40;;;21.50;99.90;;;;;;5031567;28;20560;-68
2021/08/04 08:54:42;;;;;;;3.13;2.03;;;21.80;99.90;;;;;;5031510;28;20453;-69
2021/08/04 08:57:10;;;;;;;3.47;2.60;;;22.00;99.90;;;;;;5031315;28;20445;-69
2021/08/04 08:59:37;;;;;;;3.50;2.50;;;22.00;99.90;;;;;;5030585;28;20983;-69
2021/08/04 09:02:05;;;;;;;3.60;2.20;;;22.00;99.90;;;;;;5030888;28;20477;-69
2021/08/04 09:04:33;;;;;;;3.57;2.17;;;22.20;99.90;;;;;;5030522;28;20489;-69
2021/08/04 09:07:01;;;;;;;3.80;2.23;;;22.20;99.90;;;;;;5030687;28;20460;-69
2021/08/04 09:09:32;;;;;;;3.63;2.30;;;22.20;99.90;;;;;;5030550;28;21026;-70
2021/08/04 09:12:14;;;;;;;3.57;2.13;;;22.30;99.90;;;;;;5030247;28;20445;-69
2021/08/04 09:14:42;;;;;;;3.57;2.20;;;22.30;99.90;;;;;;5030707;28;20468;-69
2021/08/04 09:17:12;;;;;;;3.83;1.90;;;22.10;99.90;;;;;;5030543;28;20854;-69
2021/08/04 09:19:43;;;;;;;3.50;2.30;;;22.50;99.90;;;;;;5030313;28;20892;-69
2021/08/04 09:22:16;;;;;;;4.77;2.80;;;22.90;99.90;;;;;;5030716;28;20472;-69
2021/08/04 09:25:14;;;;;;;3.33;2.00;;;23.20;99.90;;;;;;5030239;28;21034;-71
2021/08/04 09:27:48;;;;;;;3.50;2.20;;;23.70;99.90;;;;;;5030427;28;20441;-68
2021/08/04 09:30:22;;;;;;;3.50;2.40;;;24.30;99.90;;;;;;5030269;28;20469;-68
2021/08/04 09:32:50;;;;;;;4.57;3.00;;;24.60;99.90;;;;;;5030469;28;20453;-70
2021/08/04 09:35:19;;;;;;;3.60;2.50;;;24.50;99.90;;;;;;5030537;28;20441;-69
2021/08/04 09:37:47;;;;;;;3.83;2.30;;;24.50;99.90;;;;;;5033047;28;20532;-70
2021/08/04 09:40:18;;;;;;;3.60;2.50;;;24.10;99.90;;;;;;5032147;28;20834;-69
2021/08/04 09:42:52;;;;;;;3.60;2.43;;;23.60;99.90;;;;;;5030801;28;20452;-69
2021/08/04 09:45:21;;;;;;;5.33;2.50;;;23.30;99.90;;;;;;5030262;28;20485;-69
2021/08/04 09:48:00;;;;;;;3.53;2.53;;;23.70;99.90;;;;;;5030378;28;20448;-68
2021/08/04 09:50:27;;;;;;;3.40;2.17;;;24.00;99.90;;;;;;5030175;28;20468;-69
2021/08/04 09:52:56;;;;;;;3.30;2.50;;;23.90;99.90;;;;;;5032248;28;20936;-71
2021/08/04 09:55:25;;;;;;;4.93;2.33;;;24.00;99.90;;;;;;5032889;28;20445;-69
2021/08/04 09:57:55;;;;;;;4.30;2.70;;;24.00;99.90;;;;;;5033368;28;20480;-70
2021/08/04 10:00:23;;;;;;;3.70;2.60;;;23.90;99.90;;;;;;5032296;28;20476;-72
2021/08/04 10:02:52;;;;;;;5.00;2.60;;;23.70;99.90;;;;;;5033054;28;20429;-71
2021/08/04 10:05:21;;;;;;;4.87;2.57;;;23.40;99.90;;;;;;5032969;28;20488;-70
2021/08/04 10:08:06;;;;;;;4.77;2.67;;;23.30;99.90;;;;;;5033132;28;20448;-71
2021/08/04 10:10:37;;;;;;;3.87;2.83;;;23.00;99.90;;;;;;5031889;28;20567;-72
2021/08/04 10:13:06;;;;;;;4.47;3.17;;;22.90;99.90;;;;;;5031741;28;20449;-69
2021/08/04 10:15:39;;;;;;;4.20;2.90;;;22.70;99.90;;;;;;5031726;28;20440;-71
2021/08/04 10:18:08;;;;;;;4.00;2.83;;;22.50;99.90;;;;;;5031970;28;20820;-71
2021/08/04 10:20:37;;;;;;;6.40;2.90;;;22.50;99.90;;;;;;5030952;28;20472;-70
2021/08/04 10:23:04;;;;;;;3.97;2.43;;;22.40;99.90;;;;;;5032806;28;20483;-71
2021/08/04 10:25:33;;;;;;;3.10;2.30;;;22.20;99.90;;;;;;5035725;28;21021;-70
2021/08/04 10:28:04;;;;;;;3.53;2.03;;;22.30;99.90;;;;;;5035525;28;20802;-70
2021/08/04 10:30:31;;;;;;;3.50;2.50;;;22.60;99.90;;;;;;5035872;28;20461;-70
2021/08/04 10:32:59;;;;;;;4.40;2.80;;;22.70;99.90;;;;;;5036180;28;20544;-71
2021/08/04 10:35:27;;;;;;;4.50;2.57;;;22.60;99.90;;;;;;5036225;28;20514;-70
2021/08/04 10:37:55;;;;;;;4.00;2.90;;;22.40;99.90;;;;;;5035753;28;20455;-70
2021/08/04 10:40:25;;;;;;;5.97;2.90;;;22.40;99.90;;;;;;5034890;28;20476;-70
2021/08/04 10:42:52;;;;;;;4.73;2.60;;;22.30;99.90;;;;;;5035908;28;20481;-70
2021/08/04 10:45:37;;;;;;;4.17;2.60;;;22.30;99.90;;;;;;5035093;28;20516;-71
2021/08/04 10:48:24;;;;;;;3.30;2.20;;;22.40;99.90;;;;;;5035662;28;20543;-70
2021/08/04 10:51:15;;;;;;;3.50;2.27;;;22.40;99.90;;;;;;5034842;28;20526;-70
2021/08/04 10:54:12;;;;;;;4.20;2.53;;;22.10;99.90;;;;;;5035560;28;20900;-69
2021/08/04 10:57:10;;;;;;;3.90;2.87;;;22.00;99.90;;;;;;5035172;28;20822;-70
2021/08/04 10:59:42;;;;;;;3.90;2.47;;;21.90;99.90;;;;;;5035556;28;20563;-70
2021/08/04 11:02:32;;;;;;;4.60;2.90;;;22.30;99.90;;;;;;5035053;28;20463;-69
2021/08/04 11:05:00;;;;;;;3.73;2.67;;;22.70;99.90;;;;;;5035062;28;20449;-72
2021/08/04 11:07:27;;;;;;;3.23;2.17;;;22.60;99.90;;;;;;5036205;28;20495;-70
2021/08/04 11:10:15;;;;;;;4.07;2.50;;;22.60;99.90;;;;;;5035627;28;20511;-71
2021/08/04 11:12:47;;;;;;;3.40;2.40;;;23.30;99.90;;;;;;5035918;28;20450;-70
2021/08/04 11:15:29;;;;;;;3.97;3.27;;;23.90;99.90;;;;;;5035414;28;20475;-70
2021/08/04 11:18:09;;;;;;;2.87;2.10;;;24.30;99.90;;;;;;5035169;28;20447;-70
2021/08/04 11:20:39;;;;;;;3.07;2.27;;;24.50;99.90;;;;;;5033971;28;20531;-71
2021/08/04 11:23:09;;;;;;;3.47;2.20;;;24.90;99.30;;;;;;5034138;28;20445;-70
2021/08/04 11:25:46;;;;;;;4.57;2.70;;;25.10;99.90;;;;;;5034016;28;20481;-69
2021/08/04 11:28:20;;;;;;;3.30;2.37;;;25.50;99.90;;;;;;5034237;28;20966;-69
2021/08/04 11:30:55;;;;;;;4.50;2.97;;;26.10;99.90;;;;;;5034721;28;20445;-72
2021/08/04 11:33:41;;;;;;;5.90;3.07;;;26.50;98.80;;;;;;5035253;28;20479;-69
2021/08/04 11:36:14;;;;;;;5.10;2.40;;;26.60;98.20;;;;;;5034889;28;20440;-69
2021/08/04 11:38:47;;;;;;;4.40;3.37;;;26.50;97.60;;;;;;5034783;28;20847;-71
2021/08/04 11:41:20;;;;;;;3.50;2.30;;;26.20;97.00;;;;;;5034846;28;20809;-70
2021/08/04 11:43:49;;;;;;;5.13;2.43;;;25.70;97.60;;;;;;5035160;28;20441;-70
2021/08/04 11:46:29;;;;;;;3.30;2.37;;;24.90;99.90;;;;;;5034534;28;20607;-71
2021/08/04 11:48:58;;;;;;;4.30;2.80;;;25.10;99.90;;;;;;5033587;28;20544;-70
2021/08/04 11:51:37;;;;;;;4.80;2.57;;;25.50;99.00;;;;;;5033844;28;20448;-70
2021/08/04 11:54:05;;;;;;;3.50;2.23;;;25.80;97.70;;;;;;5033380;28;20551;-70
2021/08/04 11:56:32;;;;;;;4.20;2.50;;;25.70;99.00;;;;;;5033720;28;20512;-70
2021/08/04 11:59:05;;;;;;;4.10;2.10;;;25.80;97.00;;;;;;5033094;28;20557;-70
2021/08/04 12:01:32;;;;;;;7.07;2.53;;;26.10;97.70;;;;;;5033371;28;20546;-70
2021/08/04 12:04:09;;;;;;;3.87;2.60;;;26.60;99.90;;;;;;5033612;28;20453;-70
2021/08/04 12:06:38;;;;;;;3.17;2.27;;;27.10;99.20;;;;;;5033983;28;20484;-70
2021/08/04 12:09:20;;;;;;;3.73;2.33;;;27.30;97.50;;;;;;5033352;28;20473;-71
2021/08/04 12:11:47;;;;;;;3.87;2.20;;;27.40;98.90;;;;;;5031914;28;20456;-69
2021/08/04 12:14:15;;;;;;;3.73;2.33;;;27.50;95.90;;;;;;5031838;28;20445;-69
2021/08/04 12:16:44;;;;;;;3.63;2.40;;;27.40;96.20;;;;;;5032053;28;20449;-69
2021/08/04 12:19:12;;;;;;;3.00;1.90;;;27.10;95.30;;;;;;5032250;28;20468;-69
2021/08/04 12:21:39;;;;;;;3.73;2.53;;;27.30;97.60;;;;;;5032148;28;20560;-70
2021/08/04 12:24:06;;;;;;;3.33;2.53;;;27.40;96.00;;;;;;5032171;28;20549;-69
2021/08/04 12:26:46;;;;;;;3.00;2.33;;;27.50;94.70;;;;;;5031581;28;20496;-68
2021/08/04 12:29:20;;;;;;;3.90;2.50;;;27.10;96.00;;;;;;5031447;28;20847;-70
2021/08/04 12:32:20;;;;;;;3.80;2.57;;;26.60;97.20;;;;;;5031871;28;20484;-69
2021/08/04 12:34:59;;;;;;;3.20;2.43;;;26.60;98.60;;;;;;4969965;28;20969;-69
2021/08/04 12:37:27;;;;;;;3.40;2.53;;;26.70;95.50;;;;;;5023111;28;20502;-70
2021/08/04 12:40:01;;;;;;;3.20;2.33;;;26.80;96.60;;;;;;5031206;28;20543;-67
2021/08/04 12:42:28;;;;;;;4.27;2.30;;;27.30;96.60;;;;;;5031422;28;20448;-68
2021/08/04 12:45:22;;;;;;;4.17;2.20;;;27.80;93.70;;;;;;5031440;28;20437;-70
2021/08/04 12:47:55;;;;;;;3.43;2.47;;;27.50;94.30;;;;;;5030621;28;20449;-69
2021/08/04 12:50:25;;;;;;;3.30;2.40;;;27.60;93.20;;;;;;5031322;28;20456;-68
2021/08/04 12:52:52;;;;;;;5.00;2.73;;;27.20;92.90;;;;;;5031552;28;20535;-70
2021/08/04 12:55:19;;;;;;;3.10;2.13;;;26.30;94.70;;;;;;5033164;28;20468;-71
2021/08/04 12:57:46;;;;;;;4.90;2.80;;;26.00;96.00;;;;;;5032220;28;21057;-69
2021/08/04 13:00:30;;;;;;;4.50;2.30;;;25.30;95.30;;;;;;5032242;28;20464;-70